Bardwell, Texas
Current Conditions -  °F | °C
As of 8:35 AM on Sunday 23 Nov 2014 (Local Time) from KJWY Reporting Station
Clear Clear  
Wind Chill: 56°   Ceiling: Unl
Heat Index: 56°   Visibility: 10mi
Dew Point: 56°   Wind: 9mph
Humidity: 100%   Direction: 170°S
Pressure: 29.58"   Gusts: NA
Location:  32.27°N, 96.7°W
Report Text: KJWY 231435Z AUTO 17008KT 10SM CLR 13/13 A2958 RMK AO2 T01320132
Loading
Personal Weather Stations






























Interactive Weather Map New forecast layout! Learn more

10-Day Weather Forecast

Advertisements
Track Severe Weather on mobile